createdAt,value
2023-03-28T00:01:08.129Z,1.40
2023-03-28T00:03:39.360Z,1.38
2023-03-28T00:06:11.121Z,1.35
2023-03-28T00:08:40.193Z,1.32
2023-03-28T00:11:19.542Z,1.32
2023-03-28T00:14:03.409Z,1.29
2023-03-28T00:16:35.637Z,1.28
2023-03-28T00:19:08.255Z,1.26
2023-03-28T00:21:39.698Z,1.24
2023-03-28T00:24:13.665Z,1.22
2023-03-28T00:26:42.867Z,1.22
2023-03-28T00:29:20.997Z,1.20
2023-03-28T00:31:50.612Z,1.19
2023-03-28T00:34:18.160Z,1.17
2023-03-28T00:36:45.298Z,1.15
2023-03-28T00:39:13.496Z,1.15
2023-03-28T00:41:43.772Z,1.13
2023-03-28T00:44:47.836Z,1.11
2023-03-28T00:47:27.485Z,1.09
2023-03-28T00:50:23.759Z,1.07
2023-03-28T00:53:02.128Z,1.05
2023-03-28T00:55:59.516Z,1.04
2023-03-28T00:58:31.953Z,1.02
2023-03-28T01:00:59.357Z,0.98
2023-03-28T01:03:34.248Z,0.96
2023-03-28T01:06:06.135Z,0.94
2023-03-28T01:08:43.725Z,0.93
2023-03-28T01:11:13.132Z,0.91
2023-03-28T01:13:49.223Z,0.88
2023-03-28T01:16:20.949Z,0.87
2023-03-28T01:18:51.636Z,0.85
2023-03-28T01:21:48.395Z,0.82
2023-03-28T01:24:54.485Z,0.79
2023-03-28T01:28:05.418Z,0.76
2023-03-28T01:31:37.019Z,0.72
2023-03-28T01:34:57.028Z,0.69
2023-03-28T01:38:01.419Z,0.68
2023-03-28T01:41:08.361Z,0.65
2023-03-28T01:44:05.431Z,0.64
2023-03-28T01:46:59.741Z,0.60
2023-03-28T01:49:47.031Z,0.58
2023-03-28T01:52:49.568Z,0.56
2023-03-28T01:55:23.126Z,0.53
2023-03-28T01:58:06.646Z,0.52
2023-03-28T02:00:56.308Z,0.51
2023-03-28T02:03:31.793Z,0.51
2023-03-28T02:06:09.935Z,0.51
2023-03-28T02:08:41.504Z,0.51
2023-03-28T02:11:35.524Z,0.52
2023-03-28T02:14:16.800Z,0.51
2023-03-28T02:17:04.910Z,0.49
2023-03-28T02:19:59.388Z,0.48
2023-03-28T02:23:14.606Z,0.48
2023-03-28T02:26:00.370Z,0.45
2023-03-28T02:28:44.787Z,0.45
2023-03-28T02:31:37.556Z,0.45
2023-03-28T02:34:04.651Z,0.43
2023-03-28T02:37:03.709Z,0.42
2023-03-28T02:39:53.903Z,0.40
2023-03-28T02:42:40.857Z,0.40
2023-03-28T02:45:22.635Z,0.38
2023-03-28T02:48:29.030Z,0.36
2023-03-28T02:51:17.891Z,0.36
2023-03-28T02:54:13.780Z,0.34
2023-03-28T02:57:05.164Z,0.32
2023-03-28T02:59:57.066Z,0.32
2023-03-28T03:02:24.286Z,0.32
2023-03-28T03:04:51.785Z,0.31
2023-03-28T03:07:19.393Z,0.29
2023-03-28T03:09:47.138Z,0.28
2023-03-28T03:12:14.316Z,0.25
2023-03-28T03:14:41.914Z,0.25
2023-03-28T03:17:40.671Z,0.23
2023-03-28T03:20:09.272Z,0.21
2023-03-28T03:22:39.401Z,0.19
2023-03-28T03:25:08.197Z,0.16
2023-03-28T03:27:45.286Z,0.14
2023-03-28T03:30:12.539Z,0.12
2023-03-28T03:33:00.539Z,0.10
2023-03-28T03:35:33.463Z,0.09
2023-03-28T03:38:04.615Z,0.07
2023-03-28T03:40:31.901Z,0.05
2023-03-28T03:42:59.685Z,0.03
2023-03-28T03:45:26.974Z,0.03
2023-03-28T03:47:54.029Z,0.00
2023-03-28T03:50:21.151Z,-0.01
2023-03-28T03:52:48.109Z,-0.02
2023-03-28T03:55:15.182Z,-0.05
2023-03-28T03:57:43.581Z,-0.07
2023-03-28T04:00:11.881Z,-0.08
2023-03-28T04:02:48.687Z,-0.10
2023-03-28T04:05:22.027Z,-0.11
2023-03-28T04:08:09.437Z,-0.11
2023-03-28T04:10:39.649Z,-0.12
2023-03-28T04:13:06.594Z,-0.14
2023-03-28T04:15:35.007Z,-0.16
2023-03-28T04:18:05.653Z,-0.17
2023-03-28T04:20:40.322Z,-0.19
2023-03-28T04:23:08.429Z,-0.21
2023-03-28T04:25:36.838Z,-0.24
2023-03-28T04:28:09.237Z,-0.26
2023-03-28T04:30:43.366Z,-0.26
2023-03-28T04:33:47.732Z,-0.31
2023-03-28T04:36:18.289Z,-0.33
2023-03-28T04:38:52.108Z,-0.36
2023-03-28T04:41:39.117Z,-0.38
2023-03-28T04:44:24.771Z,-0.41
2023-03-28T04:46:59.632Z,-0.43
2023-03-28T04:49:27.034Z,-0.44
2023-03-28T04:51:54.816Z,-0.46
2023-03-28T04:54:21.841Z,-0.47
2023-03-28T04:56:49.256Z,-0.48
2023-03-28T04:59:23.029Z,-0.49
2023-03-28T05:01:51.593Z,-0.48
2023-03-28T05:04:37.261Z,-0.47
2023-03-28T05:07:06.917Z,-0.48
2023-03-28T05:09:34.559Z,-0.48
2023-03-28T05:12:01.532Z,-0.47
2023-03-28T05:14:29.504Z,-0.46
2023-03-28T05:17:08.321Z,-0.44
2023-03-28T05:19:48.647Z,-0.43
2023-03-28T05:22:18.556Z,-0.41
2023-03-28T05:24:45.566Z,-0.40
2023-03-28T05:27:17.907Z,-0.40
2023-03-28T05:29:45.482Z,-0.39
2023-03-28T05:32:12.894Z,-0.38
2023-03-28T05:34:41.159Z,-0.35
2023-03-28T05:37:09.213Z,-0.35
2023-03-28T05:39:45.985Z,-0.34
2023-03-28T05:42:13.358Z,-0.33
2023-03-28T05:44:40.748Z,-0.31
2023-03-28T05:47:38.931Z,-0.30
2023-03-28T05:50:07.268Z,-0.26
2023-03-28T05:52:34.411Z,-0.25
2023-03-28T05:55:07.252Z,-0.22
2023-03-28T05:57:34.696Z,-0.22
2023-03-28T06:00:15.278Z,-0.20
2023-03-28T06:02:52.319Z,-0.19
2023-03-28T06:05:23.867Z,-0.17
2023-03-28T06:07:51.575Z,-0.16
2023-03-28T06:10:19.754Z,-0.15
2023-03-28T06:13:12.963Z,-0.14
2023-03-28T06:15:40.005Z,-0.13
2023-03-28T06:18:07.042Z,-0.10
2023-03-28T06:20:39.398Z,-0.10
2023-03-28T06:23:06.343Z,-0.08
2023-03-28T06:25:33.395Z,-0.07
2023-03-28T06:28:00.651Z,-0.05
2023-03-28T06:30:27.800Z,-0.03
2023-03-28T06:32:55.063Z,-0.01
2023-03-28T06:35:22.091Z,0.03
2023-03-28T06:37:49.056Z,0.08
2023-03-28T06:40:22.573Z,0.12
2023-03-28T06:42:49.653Z,0.18
2023-03-28T06:45:22.563Z,0.24
2023-03-28T06:47:57.599Z,0.31
2023-03-28T06:50:38.267Z,0.40
2023-03-28T06:53:10.388Z,0.46
2023-03-28T06:55:37.478Z,0.54
2023-03-28T06:58:04.479Z,0.62
2023-03-28T07:00:41.911Z,0.70
2023-03-28T07:03:36.745Z,0.80
2023-03-28T07:06:08.256Z,0.87
2023-03-28T07:08:36.598Z,0.94
2023-03-28T07:11:04.530Z,1.01
2023-03-28T07:13:32.777Z,1.07
2023-03-28T07:16:11.331Z,1.16
2023-03-28T07:18:38.535Z,1.22
2023-03-28T07:21:15.911Z,1.28
2023-03-28T07:23:44.683Z,1.34
2023-03-28T07:26:15.977Z,1.42
2023-03-28T07:28:43.112Z,1.49
2023-03-28T07:31:11.359Z,1.56
2023-03-28T07:33:38.720Z,1.62
2023-03-28T07:36:15.040Z,1.71
2023-03-28T07:38:46.010Z,1.81
2023-03-28T07:41:15.260Z,1.89
2023-03-28T07:43:42.214Z,1.97
2023-03-28T07:46:17.078Z,2.06
2023-03-28T07:48:46.292Z,2.16
2023-03-28T07:51:14.234Z,2.24
2023-03-28T07:53:41.819Z,2.33
2023-03-28T07:56:10.467Z,2.41
2023-03-28T07:59:01.857Z,2.51
2023-03-28T08:01:28.885Z,2.59
2023-03-28T08:04:00.914Z,2.70
2023-03-28T08:06:38.386Z,2.82
2023-03-28T08:09:08.240Z,2.92
2023-03-28T08:11:41.798Z,3.03
2023-03-28T08:14:13.206Z,3.13
2023-03-28T08:16:41.073Z,3.24
2023-03-28T08:19:11.757Z,3.31
2023-03-28T08:22:02.484Z,3.43
2023-03-28T08:24:36.191Z,3.51
2023-03-28T08:27:20.992Z,3.60
2023-03-28T08:29:51.591Z,3.66
2023-03-28T08:32:19.101Z,3.73
2023-03-28T08:34:46.983Z,3.79
2023-03-28T08:37:17.234Z,3.88
2023-03-28T08:39:47.108Z,3.93
2023-03-28T08:42:28.902Z,4.01
2023-03-28T08:45:17.974Z,4.15
2023-03-28T08:48:11.817Z,4.28
2023-03-28T08:50:50.581Z,4.36
2023-03-28T08:53:30.739Z,4.43
2023-03-28T08:56:01.279Z,4.47
2023-03-28T08:58:52.790Z,4.54
2023-03-28T09:01:20.931Z,4.66
2023-03-28T09:03:49.976Z,4.72
2023-03-28T09:06:40.252Z,4.76
2023-03-28T09:09:27.106Z,4.85
2023-03-28T09:12:34.467Z,4.96
2023-03-28T09:15:56.925Z,5.08
2023-03-28T09:19:08.492Z,5.20
2023-03-28T09:24:48.682Z,5.42
2023-03-28T09:27:21.537Z,5.50
2023-03-28T09:29:51.917Z,5.58
2023-03-28T09:32:28.627Z,5.65
2023-03-28T09:34:56.731Z,5.71
2023-03-28T09:37:49.271Z,5.82
2023-03-28T09:40:29.626Z,5.88
2023-03-28T09:43:40.625Z,5.97
2023-03-28T09:46:39.615Z,6.02
2023-03-28T09:49:26.253Z,6.17
2023-03-28T09:52:01.084Z,6.26
2023-03-28T09:54:37.448Z,6.35
2023-03-28T09:57:05.740Z,6.39
2023-03-28T09:59:47.692Z,6.46
2023-03-28T10:02:32.647Z,6.53
2023-03-28T10:05:40.640Z,6.60
2023-03-28T10:08:40.742Z,6.52
2023-03-28T10:11:22.732Z,6.66
2023-03-28T10:13:51.949Z,6.77
2023-03-28T10:16:30.066Z,6.90
2023-03-28T10:19:26.166Z,6.98
2023-03-28T10:22:39.102Z,7.08
2023-03-28T10:25:15.843Z,7.12
2023-03-28T10:27:44.718Z,7.20
2023-03-28T10:30:22.657Z,7.28
2023-03-28T10:33:16.153Z,7.37
2023-03-28T10:36:33.936Z,7.50
2023-03-28T10:39:29.073Z,7.58
2023-03-28T10:42:16.012Z,7.58
2023-03-28T10:45:01.147Z,7.58
2023-03-28T10:47:31.300Z,7.62
2023-03-28T10:50:02.873Z,7.68
2023-03-28T10:53:10.541Z,7.75
2023-03-28T10:56:02.753Z,7.84
2023-03-28T10:59:14.718Z,7.98
2023-03-28T11:02:06.895Z,8.09
2023-03-28T11:05:02.021Z,8.20
2023-03-28T11:08:20.598Z,8.30
2023-03-28T11:11:11.103Z,8.37
2023-03-28T11:14:17.491Z,8.39
2023-03-28T11:17:11.359Z,8.39
2023-03-28T11:20:10.545Z,8.48
2023-03-28T11:23:38.578Z,8.55
2023-03-28T11:26:45.279Z,8.69
2023-03-28T11:29:45.920Z,8.88
2023-03-28T11:32:44.464Z,9.05
2023-03-28T11:38:22.134Z,9.35
2023-03-28T11:41:12.947Z,9.49
2023-03-28T11:44:31.463Z,9.71
2023-03-28T11:47:21.065Z,9.84
2023-03-28T11:50:15.050Z,9.87
2023-03-28T11:53:10.403Z,9.85
2023-03-28T11:56:00.237Z,9.98
2023-03-28T11:58:52.260Z,10.10
2023-03-28T12:01:26.981Z,10.22
2023-03-28T12:04:05.763Z,10.34
2023-03-28T12:07:02.577Z,10.54
2023-03-28T12:10:08.721Z,10.76
2023-03-28T12:13:02.985Z,10.80
2023-03-28T12:15:59.265Z,10.93
2023-03-28T12:18:37.226Z,10.89
2023-03-28T12:21:23.278Z,10.91
2023-03-28T12:24:35.734Z,10.75
2023-03-28T12:27:27.746Z,10.85
2023-03-28T12:30:05.544Z,10.90
2023-03-28T12:32:58.177Z,10.96
2023-03-28T12:35:58.132Z,11.00
2023-03-28T12:38:47.730Z,10.99
2023-03-28T12:41:32.445Z,11.05
2023-03-28T12:44:22.743Z,11.12
2023-03-28T12:47:07.745Z,11.26
2023-03-28T12:49:46.293Z,11.37
2023-03-28T12:52:43.799Z,11.52
2023-03-28T12:55:24.423Z,11.64
2023-03-28T12:58:10.753Z,11.79
2023-03-28T13:01:07.531Z,11.89
2023-03-28T13:03:40.621Z,12.03
2023-03-28T13:06:30.522Z,12.14
2023-03-28T13:09:47.893Z,12.39
2023-03-28T13:13:10.702Z,12.41
2023-03-28T13:16:06.550Z,12.55
2023-03-28T13:18:34.906Z,12.54
2023-03-28T13:21:05.299Z,12.58
2023-03-28T13:23:44.637Z,12.61
2023-03-28T13:26:11.643Z,12.67
2023-03-28T13:28:52.651Z,12.81
2023-03-28T13:31:25.334Z,12.99
2023-03-28T13:34:00.754Z,13.05
2023-03-28T13:36:36.863Z,13.22
2023-03-28T13:39:27.464Z,13.31
2023-03-28T13:41:58.228Z,13.30
2023-03-28T13:44:41.760Z,13.30
2023-03-28T13:47:26.042Z,13.24
2023-03-28T13:50:26.435Z,13.14
2023-03-28T13:52:53.444Z,12.84
2023-03-28T13:55:26.254Z,12.83
2023-03-28T13:57:53.684Z,12.54
2023-03-28T14:00:25.776Z,12.54
2023-03-28T14:03:00.983Z,12.53
2023-03-28T14:05:32.030Z,12.48
2023-03-28T14:08:13.975Z,12.40
2023-03-28T14:10:46.452Z,12.27
2023-03-28T14:13:29.995Z,12.17
2023-03-28T14:15:59.680Z,11.75
2023-03-28T14:18:36.467Z,11.76
2023-03-28T14:21:06.626Z,11.63
2023-03-28T14:23:38.438Z,11.53
2023-03-28T14:26:22.038Z,11.38
2023-03-28T14:28:51.579Z,11.31
2023-03-28T14:31:34.793Z,11.22
2023-03-28T14:34:16.823Z,11.10
2023-03-28T14:37:18.329Z,11.00
2023-03-28T14:39:45.689Z,10.91
2023-03-28T14:42:18.010Z,10.88
2023-03-28T14:44:53.293Z,10.85
2023-03-28T14:47:28.016Z,10.91
2023-03-28T14:49:55.683Z,11.13
2023-03-28T14:52:30.136Z,11.17
2023-03-28T14:54:58.563Z,11.44
2023-03-28T14:57:26.562Z,11.65
2023-03-28T14:59:56.909Z,11.77
2023-03-28T15:02:41.224Z,12.07
2023-03-28T15:05:17.809Z,12.21
2023-03-28T15:07:46.549Z,12.38
2023-03-28T15:10:23.185Z,12.54
2023-03-28T15:13:22.006Z,12.62
2023-03-28T15:15:53.552Z,12.65
2023-03-28T15:18:28.513Z,12.70
2023-03-28T15:21:00.890Z,12.71
2023-03-28T15:23:38.272Z,12.69
2023-03-28T15:26:13.259Z,12.66
2023-03-28T15:28:40.584Z,12.70
2023-03-28T15:31:09.540Z,12.67
2023-03-28T15:33:36.535Z,12.73
2023-03-28T15:36:30.981Z,12.83
2023-03-28T15:39:32.402Z,12.95
2023-03-28T15:42:22.525Z,12.94
2023-03-28T15:45:11.874Z,13.00
2023-03-28T15:47:39.113Z,12.88
2023-03-28T15:50:13.145Z,12.83
2023-03-28T15:52:42.984Z,12.85
2023-03-28T15:55:21.130Z,12.76
2023-03-28T15:57:48.620Z,12.76
2023-03-28T16:00:38.585Z,12.73
2023-03-28T16:03:32.746Z,12.64
2023-03-28T16:06:11.874Z,12.41
2023-03-28T16:08:45.434Z,12.28
2023-03-28T16:11:23.340Z,12.24
2023-03-28T16:14:20.774Z,12.08
2023-03-28T16:16:56.393Z,11.82
2023-03-28T16:19:34.999Z,11.82
2023-03-28T16:22:02.658Z,11.76
2023-03-28T16:24:30.055Z,11.74
2023-03-28T16:26:57.383Z,11.72
2023-03-28T16:29:24.354Z,11.69
2023-03-28T16:31:51.348Z,11.60
2023-03-28T16:34:18.353Z,11.57
2023-03-28T16:36:45.707Z,11.38
2023-03-28T16:39:12.740Z,11.31
2023-03-28T16:41:39.797Z,11.23
2023-03-28T16:44:06.759Z,11.06
2023-03-28T16:46:34.189Z,10.83
2023-03-28T16:49:01.622Z,10.71
2023-03-28T16:51:28.609Z,10.68
2023-03-28T16:53:55.699Z,10.57
2023-03-28T16:56:25.636Z,10.45
2023-03-28T16:58:52.989Z,10.32
2023-03-28T17:01:20.423Z,10.24
2023-03-28T17:03:48.604Z,10.20
2023-03-28T17:06:16.938Z,10.16
2023-03-28T17:08:44.528Z,10.04
2023-03-28T17:11:12.570Z,9.92
2023-03-28T17:13:42.046Z,9.75
2023-03-28T17:16:10.610Z,9.66
2023-03-28T17:18:37.548Z,9.55
2023-03-28T17:21:11.116Z,9.44
2023-03-28T17:23:40.269Z,9.32
2023-03-28T17:26:10.056Z,9.25
2023-03-28T17:28:39.195Z,9.18
2023-03-28T17:31:13.456Z,9.11
2023-03-28T17:33:40.866Z,9.06
2023-03-28T17:36:21.761Z,8.99
2023-03-28T17:38:54.619Z,8.95
2023-03-28T17:41:24.860Z,8.87
2023-03-28T17:43:54.621Z,8.81
2023-03-28T17:46:22.959Z,8.79
2023-03-28T17:48:50.667Z,8.74
2023-03-28T17:51:17.995Z,8.69
2023-03-28T17:53:47.013Z,8.66
2023-03-28T17:56:16.201Z,8.64
2023-03-28T17:58:44.202Z,8.61
2023-03-28T18:01:14.616Z,8.59
2023-03-28T18:03:42.162Z,8.56
2023-03-28T18:06:17.443Z,8.51
2023-03-28T18:08:44.788Z,8.49
2023-03-28T18:11:16.156Z,8.45
2023-03-28T18:13:43.466Z,8.41
2023-03-28T18:16:17.852Z,8.35
2023-03-28T18:18:44.863Z,8.30
2023-03-28T18:21:12.674Z,8.27
2023-03-28T18:23:40.322Z,8.20
2023-03-28T18:26:07.982Z,8.18
2023-03-28T18:28:36.320Z,8.09
2023-03-28T18:31:08.930Z,8.07
2023-03-28T18:33:36.291Z,8.04
2023-03-28T18:36:03.574Z,8.02
2023-03-28T18:38:42.761Z,7.97
2023-03-28T18:41:12.379Z,7.93
2023-03-28T18:43:42.080Z,7.87
2023-03-28T18:46:15.440Z,7.89
2023-03-28T18:48:43.610Z,7.85
2023-03-28T18:51:11.789Z,7.84
2023-03-28T18:53:39.026Z,7.82
2023-03-28T18:56:08.143Z,7.81
2023-03-28T18:58:38.842Z,7.80
2023-03-28T19:01:08.768Z,7.80
2023-03-28T19:03:41.835Z,7.78
2023-03-28T19:06:12.334Z,7.78
2023-03-28T19:08:40.369Z,7.77
2023-03-28T19:11:15.310Z,7.78
2023-03-28T19:13:42.886Z,7.78
2023-03-28T19:16:13.738Z,7.78
2023-03-28T19:18:43.980Z,7.79
2023-03-28T19:21:11.926Z,7.79
2023-03-28T19:23:39.897Z,7.80
2023-03-28T19:26:09.384Z,7.80
2023-03-28T19:28:37.233Z,7.81
2023-03-28T19:31:07.447Z,7.83
2023-03-28T19:33:37.207Z,7.82
2023-03-28T19:36:06.246Z,7.82
2023-03-28T19:38:36.228Z,7.80
2023-03-28T19:41:16.162Z,7.80
2023-03-28T19:43:44.124Z,7.78
2023-03-28T19:46:23.018Z,7.80
2023-03-28T19:48:53.185Z,7.80
2023-03-28T19:51:20.228Z,7.82
2023-03-28T19:53:47.446Z,7.81
2023-03-28T19:56:14.751Z,7.83
2023-03-28T19:58:41.874Z,7.86
2023-03-28T20:01:08.909Z,7.85
2023-03-28T20:03:36.042Z,7.88
2023-03-28T20:06:09.533Z,7.88
2023-03-28T20:08:36.732Z,7.92
2023-03-28T20:11:07.814Z,7.91
2023-03-28T20:13:34.825Z,7.91
2023-03-28T20:16:04.651Z,7.86
2023-03-28T20:18:32.626Z,7.88
2023-03-28T20:21:09.810Z,7.88
2023-03-28T20:23:37.164Z,7.88
2023-03-28T20:26:19.852Z,7.90
2023-03-28T20:28:49.518Z,7.90
2023-03-28T20:31:18.269Z,7.91
2023-03-28T20:33:46.088Z,7.97
2023-03-28T20:36:13.205Z,7.98
2023-03-28T20:38:40.550Z,8.00
2023-03-28T20:41:16.975Z,8.00
2023-03-28T20:43:47.389Z,8.03
2023-03-28T20:46:19.049Z,8.04
2023-03-28T20:48:51.927Z,8.05
2023-03-28T20:51:22.040Z,8.06
2023-03-28T20:54:01.201Z,8.05
2023-03-28T20:56:30.904Z,8.00
2023-03-28T20:58:59.441Z,8.00
2023-03-28T21:01:30.399Z,7.99
2023-03-28T21:03:59.789Z,7.98
2023-03-28T21:06:38.173Z,7.99
2023-03-28T21:09:09.765Z,7.99
2023-03-28T21:11:39.032Z,8.00
2023-03-28T21:14:08.116Z,8.00
2023-03-28T21:16:37.291Z,7.99
2023-03-28T21:19:04.646Z,8.02
2023-03-28T21:21:33.794Z,7.99
2023-03-28T21:24:02.371Z,7.97
2023-03-28T21:26:29.722Z,7.98
2023-03-28T21:28:56.807Z,7.92
2023-03-28T21:31:27.892Z,7.95
2023-03-28T21:33:57.201Z,7.94
2023-03-28T21:36:25.768Z,7.90
2023-03-28T21:38:52.928Z,7.85
2023-03-28T21:41:20.152Z,7.85
2023-03-28T21:43:48.103Z,7.83
2023-03-28T21:46:18.124Z,7.82
2023-03-28T21:48:47.572Z,7.83
2023-03-28T21:51:16.013Z,7.74
2023-03-28T21:53:42.941Z,7.74
2023-03-28T21:56:12.600Z,7.71
2023-03-28T21:58:40.020Z,7.69
2023-03-28T22:01:07.591Z,7.68
2023-03-28T22:03:38.192Z,7.64
2023-03-28T22:06:06.423Z,7.65
2023-03-28T22:08:33.478Z,7.63
2023-03-28T22:11:02.621Z,7.63
2023-03-28T22:13:30.506Z,7.63
2023-03-28T22:16:01.529Z,7.64
2023-03-28T22:18:30.645Z,7.65
2023-03-28T22:21:02.124Z,7.68
2023-03-28T22:23:29.928Z,7.68
2023-03-28T22:25:58.430Z,7.69
2023-03-28T22:28:25.491Z,7.74
2023-03-28T22:30:56.722Z,7.79
2023-03-28T22:33:25.215Z,7.80
2023-03-28T22:35:52.648Z,7.81
2023-03-28T22:38:19.676Z,7.82
2023-03-28T22:40:47.568Z,7.83
2023-03-28T22:43:16.133Z,7.83
2023-03-28T22:45:43.546Z,7.80
2023-03-28T22:48:16.976Z,7.76
2023-03-28T22:50:44.626Z,7.72
2023-03-28T22:53:12.270Z,7.69
2023-03-28T22:55:39.586Z,7.67
2023-03-28T22:58:06.927Z,7.64
2023-03-28T23:00:34.723Z,7.61
2023-03-28T23:03:02.296Z,7.59
2023-03-28T23:05:29.653Z,7.57
2023-03-28T23:07:56.692Z,7.53
2023-03-28T23:10:24.227Z,7.51
2023-03-28T23:12:51.803Z,7.48
2023-03-28T23:15:18.815Z,7.43
2023-03-28T23:17:45.903Z,7.42
2023-03-28T23:20:15.745Z,7.38
2023-03-28T23:22:46.028Z,7.34
2023-03-28T23:25:15.556Z,7.30
2023-03-28T23:27:43.282Z,7.24
2023-03-28T23:30:13.602Z,7.21
2023-03-28T23:32:40.964Z,7.17
2023-03-28T23:35:10.318Z,7.14
2023-03-28T23:37:38.286Z,7.12
2023-03-28T23:40:11.432Z,7.08
2023-03-28T23:42:38.348Z,7.04
2023-03-28T23:45:06.678Z,6.99
2023-03-28T23:47:33.627Z,6.95
2023-03-28T23:50:00.581Z,6.93
2023-03-28T23:52:27.561Z,6.90
2023-03-28T23:54:54.490Z,6.88
2023-03-28T23:57:24.874Z,6.85
2023-03-28T23:59:51.839Z,6.83
